createdAt,value
2023-07-17T00:00:47.057Z,97.29
2023-07-17T00:03:37.769Z,98.44
2023-07-17T00:06:06.230Z,97.73
2023-07-17T00:08:35.142Z,98.09
2023-07-17T00:11:03.958Z,98.51
2023-07-17T00:13:32.485Z,98.77
2023-07-17T00:16:01.086Z,97.81
2023-07-17T00:18:31.808Z,98.89
2023-07-17T00:21:01.385Z,98.99
2023-07-17T00:23:30.009Z,98.43
2023-07-17T00:25:58.504Z,99.40
2023-07-17T00:28:27.169Z,99.33
2023-07-17T00:30:55.483Z,100.00
2023-07-17T00:33:24.088Z,100.00
2023-07-17T00:35:52.347Z,100.00
2023-07-17T00:38:22.189Z,100.00
2023-07-17T00:40:50.343Z,100.00
2023-07-17T00:43:19.021Z,100.00
2023-07-17T00:45:48.329Z,100.00
2023-07-17T00:48:17.350Z,100.00
2023-07-17T00:50:45.564Z,100.00
2023-07-17T00:53:15.548Z,100.00
2023-07-17T00:55:46.501Z,100.00
2023-07-17T00:58:15.404Z,100.00
2023-07-17T01:00:43.831Z,100.00
2023-07-17T01:03:13.061Z,100.00
2023-07-17T01:05:41.421Z,100.00
2023-07-17T01:08:10.043Z,100.00
2023-07-17T01:10:38.296Z,100.00
2023-07-17T01:13:08.232Z,100.00
2023-07-17T01:15:36.555Z,100.00
2023-07-17T01:18:06.269Z,100.00
2023-07-17T01:20:34.673Z,100.00
2023-07-17T01:23:06.189Z,100.00
2023-07-17T01:25:34.644Z,100.00
2023-07-17T01:28:03.360Z,100.00
2023-07-17T01:30:31.623Z,100.00
2023-07-17T01:33:00.269Z,100.00
2023-07-17T01:35:28.669Z,100.00
2023-07-17T01:37:57.233Z,100.00
2023-07-17T01:40:26.821Z,100.00
2023-07-17T01:42:55.669Z,100.00
2023-07-17T01:45:23.856Z,100.00
2023-07-17T01:47:52.617Z,100.00
2023-07-17T01:50:21.067Z,100.00
2023-07-17T01:52:49.648Z,100.00
2023-07-17T01:55:18.056Z,100.00
2023-07-17T01:57:47.944Z,100.00
2023-07-17T02:00:16.649Z,100.00
2023-07-17T02:02:45.134Z,100.00
2023-07-17T02:05:13.531Z,100.00
2023-07-17T02:07:42.074Z,100.00
2023-07-17T02:10:14.122Z,100.00
2023-07-17T02:12:42.704Z,100.00
2023-07-17T02:15:14.214Z,100.00
2023-07-17T02:17:42.809Z,100.00
2023-07-17T02:20:14.508Z,100.00
2023-07-17T02:22:43.352Z,100.00
2023-07-17T02:25:11.667Z,100.00
2023-07-17T02:27:40.316Z,100.00
2023-07-17T02:34:01.380Z,100.00
2023-07-17T02:36:30.988Z,100.00
2023-07-17T02:39:00.181Z,100.00
2023-07-17T02:41:28.433Z,100.00
2023-07-17T02:43:56.923Z,100.00
2023-07-17T02:46:25.184Z,100.00
2023-07-17T02:48:53.671Z,100.00
2023-07-17T02:51:23.372Z,100.00
2023-07-17T02:53:51.858Z,100.00
2023-07-17T02:56:20.888Z,100.00
2023-07-17T02:58:50.888Z,100.00
2023-07-17T03:01:19.242Z,100.00
2023-07-17T03:03:48.077Z,100.00
2023-07-17T03:06:16.310Z,100.00
2023-07-17T03:08:46.640Z,100.00
2023-07-17T03:11:15.000Z,100.00
2023-07-17T03:13:43.791Z,100.00
2023-07-17T03:16:12.075Z,100.00
2023-07-17T03:18:40.702Z,100.00
2023-07-17T03:21:08.954Z,100.00
2023-07-17T03:23:37.423Z,100.00
2023-07-17T03:26:07.118Z,100.00
2023-07-17T03:28:36.208Z,100.00
2023-07-17T03:31:04.420Z,100.00
2023-07-17T03:33:35.376Z,100.00
2023-07-17T03:36:03.606Z,100.00
2023-07-17T03:38:32.106Z,93.36
2023-07-17T03:41:00.365Z,90.97
2023-07-17T03:43:30.258Z,91.25
2023-07-17T03:45:58.523Z,96.04
2023-07-17T03:48:27.084Z,99.75
2023-07-17T03:50:55.355Z,100.00
2023-07-17T03:53:23.881Z,100.00
2023-07-17T03:55:52.664Z,100.00
2023-07-17T03:58:21.138Z,100.00
2023-07-17T04:00:51.136Z,100.00
2023-07-17T04:03:19.745Z,100.00
2023-07-17T04:05:48.765Z,100.00
2023-07-17T04:08:17.322Z,100.00
2023-07-17T04:10:45.634Z,100.00
2023-07-17T04:13:14.657Z,100.00
2023-07-17T04:15:43.420Z,99.82
2023-07-17T04:18:13.322Z,99.22
2023-07-17T04:20:42.032Z,95.80
2023-07-17T04:23:11.555Z,95.54
2023-07-17T04:25:40.200Z,94.88
2023-07-17T04:28:08.786Z,91.42
2023-07-17T04:30:38.135Z,91.96
2023-07-17T04:33:07.284Z,89.17
2023-07-17T04:35:39.593Z,87.40
2023-07-17T04:38:08.162Z,85.34
2023-07-17T04:40:36.562Z,82.15
2023-07-17T04:43:05.085Z,81.41
2023-07-17T04:45:33.360Z,76.26
2023-07-17T04:48:02.162Z,72.69
2023-07-17T04:50:30.483Z,70.78
2023-07-17T04:53:02.001Z,73.31
2023-07-17T04:55:30.800Z,75.08
2023-07-17T04:57:59.277Z,75.99
2023-07-17T05:00:27.845Z,75.96
2023-07-17T05:02:56.469Z,77.66
2023-07-17T05:05:25.249Z,77.55
2023-07-17T05:07:53.757Z,78.29
2023-07-17T05:10:23.608Z,79.05
2023-07-17T05:12:52.147Z,80.00
2023-07-17T05:15:20.817Z,80.10
2023-07-17T05:17:49.380Z,80.74
2023-07-17T05:20:17.907Z,80.34
2023-07-17T05:22:46.446Z,80.90
2023-07-17T05:25:14.911Z,81.25
2023-07-17T05:27:44.805Z,82.24
2023-07-17T05:30:14.411Z,82.47
2023-07-17T05:32:43.011Z,82.21
2023-07-17T05:35:11.581Z,82.42
2023-07-17T05:37:40.150Z,82.32
2023-07-17T05:40:09.709Z,81.72
2023-07-17T05:42:38.255Z,81.91
2023-07-17T05:45:09.784Z,81.61
2023-07-17T05:47:38.837Z,82.43
2023-07-17T05:50:08.705Z,82.42
2023-07-17T05:52:37.166Z,83.15
2023-07-17T05:55:11.629Z,81.85
2023-07-17T05:57:40.205Z,82.37
2023-07-17T06:00:14.270Z,82.68
2023-07-17T06:02:43.365Z,83.65
2023-07-17T06:05:12.361Z,85.22
2023-07-17T06:07:41.062Z,85.68
2023-07-17T06:10:10.196Z,86.50
2023-07-17T06:12:38.829Z,86.92
2023-07-17T06:15:10.666Z,87.39
2023-07-17T06:17:42.380Z,89.33
2023-07-17T06:20:11.269Z,94.89
2023-07-17T06:22:40.133Z,97.50
2023-07-17T06:25:08.965Z,97.96
2023-07-17T06:27:37.510Z,98.85
2023-07-17T06:30:06.487Z,98.14
2023-07-17T06:32:37.427Z,98.01
2023-07-17T06:35:06.805Z,97.74
2023-07-17T06:37:35.582Z,97.40
2023-07-17T06:40:05.235Z,98.34
2023-07-17T06:42:36.727Z,97.93
2023-07-17T06:45:05.467Z,98.71
2023-07-17T06:47:37.884Z,95.82
2023-07-17T06:50:10.468Z,94.38
2023-07-17T06:52:39.859Z,93.44
2023-07-17T06:55:09.739Z,92.97
2023-07-17T06:57:38.279Z,92.06
2023-07-17T07:00:07.929Z,90.57
2023-07-17T07:02:38.552Z,90.51
2023-07-17T07:05:11.100Z,90.35
2023-07-17T07:07:39.759Z,89.60
2023-07-17T07:10:09.628Z,89.42
2023-07-17T07:12:40.932Z,89.02
2023-07-17T07:15:10.879Z,88.09
2023-07-17T07:17:39.491Z,87.18
2023-07-17T07:20:10.780Z,86.24
2023-07-17T07:22:39.413Z,84.90
2023-07-17T07:25:09.118Z,83.49
2023-07-17T07:27:37.669Z,82.87
2023-07-17T07:30:07.151Z,81.73
2023-07-17T07:32:36.076Z,77.45
2023-07-17T07:35:04.732Z,75.18
2023-07-17T07:37:34.617Z,72.88
2023-07-17T07:40:02.889Z,71.79
2023-07-17T07:42:31.451Z,71.02
2023-07-17T07:45:00.273Z,68.41
2023-07-17T07:47:28.850Z,65.24
2023-07-17T07:49:57.305Z,65.28
2023-07-17T07:52:28.926Z,64.16
2023-07-17T07:55:00.822Z,62.62
2023-07-17T07:57:29.969Z,62.20
2023-07-17T07:59:59.331Z,60.92
2023-07-17T08:02:27.852Z,60.25
2023-07-17T08:04:56.237Z,60.08
2023-07-17T08:07:27.401Z,57.37
2023-07-17T08:09:55.902Z,56.26
2023-07-17T08:12:25.972Z,55.52
2023-07-17T08:14:54.517Z,55.31
2023-07-17T08:17:23.043Z,53.21
2023-07-17T08:19:51.348Z,50.75
2023-07-17T08:22:19.906Z,51.54
2023-07-17T08:24:48.106Z,51.85
2023-07-17T08:27:16.738Z,53.29
2023-07-17T08:29:46.319Z,52.99
2023-07-17T08:32:14.910Z,51.73
2023-07-17T08:34:43.284Z,50.79
2023-07-17T08:37:12.226Z,50.99
2023-07-17T08:39:42.554Z,49.02
2023-07-17T08:42:13.949Z,48.65
2023-07-17T08:44:42.221Z,48.49
2023-07-17T08:47:13.988Z,46.48
2023-07-17T08:49:42.654Z,46.54
2023-07-17T08:52:13.276Z,45.36
2023-07-17T08:54:43.744Z,44.98
2023-07-17T08:57:13.027Z,43.54
2023-07-17T08:59:41.833Z,44.57
2023-07-17T09:02:11.819Z,41.59
2023-07-17T09:04:40.158Z,42.66
2023-07-17T09:07:08.770Z,42.87
2023-07-17T09:09:37.012Z,42.52
2023-07-17T09:12:10.085Z,41.25
2023-07-17T09:14:39.142Z,40.54
2023-07-17T09:17:09.734Z,41.81
2023-07-17T09:19:40.023Z,42.18
2023-07-17T09:22:09.396Z,42.03
2023-07-17T09:24:38.927Z,41.46
2023-07-17T09:27:09.398Z,39.75
2023-07-17T09:29:43.555Z,39.89
2023-07-17T09:32:20.665Z,39.57
2023-07-17T09:34:56.627Z,37.29
2023-07-17T09:37:31.784Z,37.50
2023-07-17T09:40:04.656Z,36.11
2023-07-17T09:42:33.140Z,36.92
2023-07-17T09:45:03.573Z,36.19
2023-07-17T09:47:33.145Z,37.35
2023-07-17T09:50:04.368Z,37.80
2023-07-17T09:52:33.958Z,35.81
2023-07-17T09:55:02.646Z,37.20
2023-07-17T09:57:38.714Z,36.22
2023-07-17T10:00:12.731Z,36.69
2023-07-17T10:02:44.531Z,37.18
2023-07-17T10:05:15.347Z,35.57
2023-07-17T10:07:47.261Z,35.82
2023-07-17T10:10:18.203Z,34.76
2023-07-17T10:12:47.994Z,34.72
2023-07-17T10:15:16.804Z,34.13
2023-07-17T10:17:45.098Z,34.50
2023-07-17T10:20:15.485Z,31.40
2023-07-17T10:22:46.562Z,32.02
2023-07-17T10:25:29.216Z,31.94
2023-07-17T10:27:59.801Z,30.50
2023-07-17T10:30:30.929Z,30.17
2023-07-17T10:33:14.775Z,30.54
2023-07-17T10:35:49.027Z,30.66
2023-07-17T10:38:19.676Z,31.90
2023-07-17T10:40:47.995Z,32.07
2023-07-17T10:43:19.274Z,31.31
2023-07-17T10:45:48.653Z,29.58
2023-07-17T10:48:19.065Z,29.18
2023-07-17T10:50:55.192Z,30.91
2023-07-17T10:53:25.363Z,30.40
2023-07-17T10:55:53.901Z,30.13
2023-07-17T10:58:24.937Z,29.60
2023-07-17T11:00:53.760Z,29.85
2023-07-17T11:03:25.704Z,29.08
2023-07-17T11:05:57.772Z,29.70
2023-07-17T11:08:28.254Z,31.02
2023-07-17T11:10:58.237Z,31.21
2023-07-17T11:13:33.120Z,31.72
2023-07-17T11:16:08.782Z,31.59
2023-07-17T11:18:47.738Z,32.81
2023-07-17T11:21:18.556Z,33.03
2023-07-17T11:23:52.421Z,33.03
2023-07-17T11:26:24.493Z,32.34
2023-07-17T11:28:54.764Z,31.70
2023-07-17T11:31:26.256Z,31.23
2023-07-17T11:33:59.471Z,32.49
2023-07-17T11:36:31.170Z,29.88
2023-07-17T11:39:02.543Z,29.78
2023-07-17T11:41:43.202Z,29.99
2023-07-17T11:44:11.737Z,28.52
2023-07-17T11:46:42.082Z,28.09
2023-07-17T11:49:11.495Z,27.48
2023-07-17T11:51:47.734Z,28.99
2023-07-17T11:54:19.913Z,29.22
2023-07-17T11:56:48.477Z,29.93
2023-07-17T11:59:21.547Z,30.43
2023-07-17T12:01:50.698Z,30.66
2023-07-17T12:04:24.519Z,30.82
2023-07-17T12:06:56.364Z,30.17
2023-07-17T12:09:25.654Z,29.41
2023-07-17T12:11:53.847Z,29.86
2023-07-17T12:14:22.577Z,29.68
2023-07-17T12:16:50.852Z,30.16
2023-07-17T12:19:20.313Z,30.84
2023-07-17T12:21:50.147Z,29.88
2023-07-17T12:24:20.113Z,28.56
2023-07-17T12:26:48.338Z,29.43
2023-07-17T12:29:16.808Z,36.25
2023-07-17T12:31:45.414Z,44.34
2023-07-17T12:34:13.835Z,46.91
2023-07-17T12:36:42.108Z,47.62
2023-07-17T12:39:15.048Z,49.04
2023-07-17T12:41:45.364Z,49.64
2023-07-17T12:44:14.238Z,50.84
2023-07-17T12:46:44.113Z,51.20
2023-07-17T12:49:14.418Z,50.52
2023-07-17T12:51:42.798Z,49.55
2023-07-17T12:54:12.959Z,49.57
2023-07-17T12:56:41.828Z,50.18
2023-07-17T12:59:11.861Z,50.55
2023-07-17T13:01:41.950Z,52.10
2023-07-17T13:04:10.737Z,51.47
2023-07-17T13:06:38.999Z,52.30
2023-07-17T13:09:09.074Z,53.29
2023-07-17T13:11:37.798Z,52.62
2023-07-17T13:14:06.702Z,53.55
2023-07-17T13:16:37.179Z,52.66
2023-07-17T13:19:05.848Z,52.64
2023-07-17T13:21:34.110Z,51.65
2023-07-17T13:24:02.671Z,53.06
2023-07-17T13:26:37.472Z,49.57
2023-07-17T13:29:10.362Z,47.04
2023-07-17T13:31:40.095Z,46.63
2023-07-17T13:34:08.928Z,45.38
2023-07-17T13:36:37.221Z,45.15
2023-07-17T13:39:06.103Z,44.53
2023-07-17T13:41:45.244Z,42.85
2023-07-17T13:44:15.262Z,43.02
2023-07-17T13:46:46.358Z,45.21
2023-07-17T13:49:15.438Z,43.83
2023-07-17T13:51:46.292Z,44.35
2023-07-17T13:54:20.597Z,43.60
2023-07-17T13:59:20.844Z,46.09
2023-07-17T14:01:50.777Z,48.63
2023-07-17T14:04:19.725Z,48.39
2023-07-17T14:06:48.191Z,47.58
2023-07-17T14:09:16.762Z,47.50
2023-07-17T14:11:45.835Z,50.36
2023-07-17T14:14:15.077Z,50.94
2023-07-17T14:16:43.329Z,49.92
2023-07-17T14:19:14.958Z,50.55
2023-07-17T14:21:44.723Z,47.29
2023-07-17T14:24:13.254Z,48.44
2023-07-17T14:26:41.560Z,49.28
2023-07-17T14:29:10.106Z,47.32
2023-07-17T14:31:38.694Z,47.07
2023-07-17T14:34:07.289Z,48.13
2023-07-17T14:36:36.862Z,49.11
2023-07-17T14:39:06.077Z,51.26
2023-07-17T14:41:34.427Z,47.09
2023-07-17T14:44:03.051Z,47.15
2023-07-17T14:46:31.672Z,46.88
2023-07-17T14:49:00.670Z,44.83
2023-07-17T14:51:29.060Z,43.85
2023-07-17T14:53:59.127Z,44.07
2023-07-17T14:56:27.372Z,43.67
2023-07-17T14:58:55.908Z,45.66
2023-07-17T15:01:24.708Z,44.13
2023-07-17T15:03:53.453Z,44.70
2023-07-17T15:06:21.822Z,45.82
2023-07-17T15:08:50.376Z,45.24
2023-07-17T15:11:20.051Z,45.48
2023-07-17T15:13:48.612Z,45.49
2023-07-17T15:16:16.945Z,46.63
2023-07-17T15:18:45.501Z,45.73
2023-07-17T15:21:13.711Z,46.07
2023-07-17T15:23:42.505Z,45.14
2023-07-17T15:26:10.706Z,46.88
2023-07-17T15:28:40.628Z,47.48
2023-07-17T15:31:13.132Z,46.80
2023-07-17T15:33:41.889Z,47.51
2023-07-17T15:36:10.191Z,46.10
2023-07-17T15:38:38.744Z,45.21
2023-07-17T15:41:07.032Z,44.92
2023-07-17T15:43:35.981Z,45.32
2023-07-17T15:46:05.794Z,45.40
2023-07-17T15:48:34.586Z,45.82
2023-07-17T15:51:02.847Z,46.29
2023-07-17T15:53:31.365Z,45.56
2023-07-17T15:55:59.756Z,45.47
2023-07-17T15:58:28.222Z,44.54
2023-07-17T16:00:56.884Z,44.06
2023-07-17T16:03:26.890Z,42.43
2023-07-17T16:05:55.079Z,43.30
2023-07-17T16:08:23.902Z,42.84
2023-07-17T16:10:52.229Z,43.94
2023-07-17T16:13:20.819Z,42.51
2023-07-17T16:15:49.358Z,41.43
2023-07-17T16:18:18.491Z,40.32
2023-07-17T16:20:48.315Z,41.20
2023-07-17T16:23:17.133Z,43.52
2023-07-17T16:25:46.257Z,43.10
2023-07-17T16:28:14.781Z,41.98
2023-07-17T16:30:43.086Z,39.08
2023-07-17T16:33:12.760Z,36.88
2023-07-17T16:35:41.092Z,36.22
2023-07-17T16:38:10.963Z,36.13
2023-07-17T16:40:39.382Z,44.77
2023-07-17T16:43:07.912Z,47.22
2023-07-17T16:45:36.223Z,49.17
2023-07-17T16:48:05.311Z,52.01
2023-07-17T16:50:33.925Z,54.41
2023-07-17T16:53:02.421Z,54.51
2023-07-17T16:55:34.599Z,55.27
2023-07-17T16:58:03.366Z,56.53
2023-07-17T17:00:32.236Z,55.72
2023-07-17T17:03:01.286Z,55.87
2023-07-17T17:05:29.891Z,57.46
2023-07-17T17:08:00.275Z,57.69
2023-07-17T17:10:28.780Z,56.58
2023-07-17T17:12:58.554Z,56.29
2023-07-17T17:15:30.234Z,56.81
2023-07-17T17:17:59.359Z,56.32
2023-07-17T17:20:27.790Z,57.31
2023-07-17T17:22:56.584Z,56.65
2023-07-17T17:25:25.106Z,58.98
2023-07-17T17:27:54.431Z,60.06
2023-07-17T17:30:24.388Z,63.53
2023-07-17T17:32:53.294Z,67.13
2023-07-17T17:35:21.626Z,73.34
2023-07-17T17:37:50.270Z,71.37
2023-07-17T17:40:19.190Z,77.03
2023-07-17T17:42:47.652Z,75.30
2023-07-17T17:45:15.943Z,72.69
2023-07-17T17:47:46.044Z,76.01
2023-07-17T17:50:14.361Z,77.68
2023-07-17T17:52:42.890Z,76.15
2023-07-17T17:55:11.475Z,74.28
2023-07-17T17:57:40.064Z,74.43
2023-07-17T18:00:10.542Z,76.46
2023-07-17T18:02:39.138Z,75.05
2023-07-17T18:05:09.812Z,78.16
2023-07-17T18:07:38.402Z,80.92
2023-07-17T18:10:07.496Z,85.37
2023-07-17T18:12:35.697Z,85.86
2023-07-17T18:15:03.995Z,87.72
2023-07-17T18:17:32.624Z,88.85
2023-07-17T18:20:01.006Z,88.70
2023-07-17T18:22:32.271Z,89.31
2023-07-17T18:25:00.582Z,91.58
2023-07-17T18:27:30.260Z,89.83
2023-07-17T18:29:58.389Z,88.36
2023-07-17T18:32:26.917Z,87.04
2023-07-17T18:34:55.175Z,89.96
2023-07-17T18:37:23.656Z,90.70
2023-07-17T18:39:53.267Z,99.64
2023-07-17T18:42:22.063Z,100.00
2023-07-17T18:44:50.390Z,99.40
2023-07-17T18:47:18.985Z,97.88
2023-07-17T18:49:47.796Z,95.19
2023-07-17T18:52:16.276Z,93.90
2023-07-17T18:54:44.471Z,92.03
2023-07-17T18:57:14.360Z,91.76
2023-07-17T18:59:42.603Z,94.05
2023-07-17T19:02:11.088Z,93.63
2023-07-17T19:04:41.642Z,95.40
2023-07-17T19:07:10.177Z,95.15
2023-07-17T19:09:38.441Z,97.91
2023-07-17T19:12:09.163Z,98.77
2023-07-17T19:14:39.126Z,100.00
2023-07-17T19:17:07.777Z,100.00
2023-07-17T19:19:36.239Z,99.40
2023-07-17T19:22:05.106Z,100.00
2023-07-17T19:24:33.504Z,100.00
2023-07-17T19:27:02.812Z,99.98
2023-07-17T19:29:31.021Z,100.00
2023-07-17T19:32:01.369Z,100.00
2023-07-17T19:34:29.618Z,100.00
2023-07-17T19:36:58.591Z,100.00
2023-07-17T19:39:26.915Z,100.00
2023-07-17T19:41:55.594Z,100.00
2023-07-17T19:44:23.791Z,100.00
2023-07-17T19:46:52.425Z,100.00
2023-07-17T19:49:22.875Z,100.00
2023-07-17T19:51:52.561Z,100.00
2023-07-17T19:54:20.506Z,100.00
2023-07-17T19:56:48.942Z,100.00
2023-07-17T19:59:17.138Z,100.00
2023-07-17T20:01:46.331Z,100.00
2023-07-17T20:04:15.789Z,100.00
2023-07-17T20:06:46.080Z,100.00
2023-07-17T20:09:14.516Z,100.00
2023-07-17T20:11:43.011Z,100.00
2023-07-17T20:14:11.209Z,100.00
2023-07-17T20:16:40.060Z,100.00
2023-07-17T20:19:08.309Z,100.00
2023-07-17T20:21:39.168Z,100.00
2023-07-17T20:24:09.068Z,100.00
2023-07-17T20:26:37.573Z,100.00
2023-07-17T20:29:05.900Z,100.00
2023-07-17T20:31:34.497Z,100.00
2023-07-17T20:34:03.065Z,100.00
2023-07-17T20:36:31.695Z,100.00
2023-07-17T20:38:59.924Z,100.00
2023-07-17T20:41:30.213Z,100.00
2023-07-17T20:43:58.747Z,100.00
2023-07-17T20:46:28.953Z,100.00
2023-07-17T20:48:57.280Z,100.00
2023-07-17T20:51:25.955Z,100.00
2023-07-17T20:53:54.206Z,100.00
2023-07-17T20:56:23.151Z,100.00
2023-07-17T20:58:55.051Z,100.00
2023-07-17T21:01:24.895Z,100.00
2023-07-17T21:03:59.867Z,100.00
2023-07-17T21:06:29.096Z,99.86
2023-07-17T21:08:57.721Z,100.00
2023-07-17T21:11:27.164Z,100.00
2023-07-17T21:13:58.378Z,100.00
2023-07-17T21:16:27.376Z,100.00
2023-07-17T21:18:56.045Z,100.00
2023-07-17T21:21:24.897Z,100.00
2023-07-17T21:23:53.190Z,100.00
2023-07-17T21:26:21.785Z,100.00
2023-07-17T21:29:02.814Z,100.00
2023-07-17T21:31:32.329Z,100.00
2023-07-17T21:34:00.621Z,100.00
2023-07-17T21:36:29.831Z,100.00
2023-07-17T21:38:58.275Z,100.00
2023-07-17T21:41:28.881Z,100.00
2023-07-17T21:43:57.229Z,99.20
2023-07-17T21:46:27.292Z,99.50
2023-07-17T21:48:55.474Z,99.15
2023-07-17T21:51:24.183Z,98.74
2023-07-17T21:53:52.363Z,99.15
2023-07-17T21:56:21.925Z,99.21
2023-07-17T21:58:50.331Z,98.99
2023-07-17T22:01:19.312Z,99.68
2023-07-17T22:03:49.237Z,99.44
2023-07-17T22:06:17.769Z,98.97
2023-07-17T22:08:46.002Z,99.97
2023-07-17T22:11:14.594Z,100.00
2023-07-17T22:13:42.852Z,100.00
2023-07-17T22:16:11.413Z,100.00
2023-07-17T22:18:39.670Z,100.00
2023-07-17T22:21:09.757Z,100.00
2023-07-17T22:23:38.121Z,100.00
2023-07-17T22:26:06.804Z,100.00
2023-07-17T22:28:35.132Z,100.00
2023-07-17T22:31:05.941Z,100.00
2023-07-17T22:33:34.472Z,100.00
2023-07-17T22:36:03.024Z,100.00
2023-07-17T22:38:32.698Z,100.00
2023-07-17T22:41:01.350Z,100.00
2023-07-17T22:43:29.516Z,100.00
2023-07-17T22:45:58.159Z,100.00
2023-07-17T22:48:29.200Z,100.00
2023-07-17T22:50:58.822Z,100.00
2023-07-17T22:53:27.362Z,100.00
2023-07-17T22:55:57.241Z,100.00
2023-07-17T22:58:25.555Z,100.00
2023-07-17T23:00:54.911Z,100.00
2023-07-17T23:03:23.124Z,100.00
2023-07-17T23:05:51.683Z,100.00
2023-07-17T23:08:19.968Z,100.00
2023-07-17T23:10:49.158Z,100.00
2023-07-17T23:13:18.786Z,100.00
2023-07-17T23:15:47.452Z,100.00
2023-07-17T23:18:15.843Z,100.00
2023-07-17T23:20:44.460Z,100.00
2023-07-17T23:23:13.749Z,100.00
2023-07-17T23:25:45.561Z,100.00
2023-07-17T23:28:15.533Z,100.00
2023-07-17T23:30:45.441Z,100.00
2023-07-17T23:33:13.788Z,100.00
2023-07-17T23:35:42.339Z,100.00
2023-07-17T23:38:10.657Z,100.00
2023-07-17T23:40:39.220Z,100.00
2023-07-17T23:45:38.252Z,100.00
2023-07-17T23:48:09.016Z,100.00
2023-07-17T23:50:38.151Z,100.00
2023-07-17T23:53:06.338Z,100.00
2023-07-17T23:55:35.053Z,100.00
2023-07-17T23:58:05.161Z,100.00
